Bruk link Alternativ webside om du vil se statistikk,rapport,graf,analyse og mye mer.

Lynradar: storm image Ingen tordenbyger registrert..



Vårt webkamera mer informasjon My webcam


Kamera på Foreneset mer informasjon webcam on foreneset


Nedbørsradar  rain snow radar


Besøk vår andre værside:

Alternativ webside

iphone versjon

Nettbrett versjon

Foreneset
verstasjon



Ikke nødvendig med spesiell oppmerksomhet.    Det er ingen advarsler

Nære METAR rapporter

     
ENZV - Stavanger
oppdatert: 20-09-2020 01:50
Klart  
Klart  
   Vind: NNV 3.6 m/s
Vind: NNV 3.6 m/s
Temperatur: 11°C
Duggpunkt: 9°C
Fuktighet: 88%
Barometer: 1024 hPa
Sikt: mer enn 10 km
Skydetaljer: Klart
ENZV 192350Z 33007KT CAVOK 11/09 Q1024
ENHD - Haugesund
oppdatert: 20-09-2020 02:20
Overskyet  
Overskyet  
   Vind: Nord 3.6 m/s
Vind: Nord 3.6 m/s
Temperatur: 11°C
Duggpunkt: 9°C
Fuktighet: 88%
Barometer: 1024 hPa
Skyer: Overskyet
Sikt: mer enn 10 km
Skydetaljer: Overskyet 487.7 m
ENHD 200020Z AUTO 01007KT 9999 OVC016/// 11/09 Q1024
ENBR - Bergen
oppdatert: 20-09-2020 02:20
Få Skyer  
Få Skyer  
   Vind: Øst 1.5 m/s
Vind: Øst 1.5 m/s
Temperatur: 7°C
Wind Chill: 6°C
Duggpunkt: 6°C
Fuktighet: 93%
Barometer: 1024 hPa
Skyer: Få Skyer
Sikt: mer enn 10 km
Skydetaljer: Få Skyer 853.4 m
ENBR 200020Z 08003KT 9999 FEW028 07/06 Q1024 RMK WIND 1200FT 33003KT
ENCN - Kristiansand
oppdatert: 20-09-2020 02:20
Klart  
Klart  
   Vind: NØ 1.5 m/s
Vind: NØ 1.5 m/s
Temperatur: 8°C
Wind Chill: 7°C
Duggpunkt: 7°C
Fuktighet: 93%
Barometer: 1022 hPa
Skyer: Klart
Sikt: mer enn 10 km
Skydetaljer: Klart
ENCN 200020Z AUTO 05003KT 360V060 9999 NCD 08/07 Q1022
ENGM - Oslo
oppdatert: 20-09-2020 02:20
Nearby Fog, Få Skyer  
Nearby Fog, Få Skyer  
   Vind: Stille
Vind: Stille
Temperatur: 5°C
Duggpunkt: 3°C
Fuktighet: 87%
Barometer: 1021 hPa
Skyer: Få Skyer
Sikt: mer enn 10 km
Skydetaljer: Få Skyer 152.4 m
ENGM 200020Z 00000KT 9999 VCFG FEW005 05/03 Q1021
ENVA - Trondheim
oppdatert: 20-09-2020 01:50
Delvis Skyet  
Delvis Skyet  
   Vind: Øst 2.6 m/s
Vind: Øst 2.6 m/s
Temperatur: 5°C
Wind Chill: 3°C
Duggpunkt: 4°C
Fuktighet: 93%
Barometer: 1020 hPa
Skyer: Delvis Skyet
Sikt: mer enn 10 km
Skydetaljer: Delvis Skyet 1066.8 m
ENVA 192350Z 10005KT 9999 SCT035 05/04 Q1020 RMK WIND 670FT 15007KT
    

Script utviklet av  Saratoga-weather.org Tilrettelagt for malen av  Weerstation Leuven

Du finner vår vær info også på:

UK Metoffice

European Weather Network

WeatherCloud

Weather Underground

Utstyr vi bruker:

Værstsjon
Davis VP2

Værprogram
Weather Display

Davis VP2

Weather Display